createdAt,value
2022-12-11T00:00:15.974Z,-3.12
2022-12-11T00:03:02.161Z,-3.43
2022-12-11T00:05:48.775Z,-3.63
2022-12-11T00:08:35.148Z,-3.62
2022-12-11T00:11:23.043Z,-3.89
2022-12-11T00:14:09.625Z,-3.99
2022-12-11T00:16:57.038Z,-4.29
2022-12-11T00:19:43.530Z,-4.29
2022-12-11T00:22:30.693Z,-4.23
2022-12-11T00:25:17.226Z,-4.19
2022-12-11T00:28:03.423Z,-4.44
2022-12-11T00:30:50.004Z,-4.18
2022-12-11T00:33:36.648Z,-4.08
2022-12-11T00:36:25.359Z,-3.88
2022-12-11T00:39:11.594Z,-4.24
2022-12-11T00:41:58.308Z,-3.99
2022-12-11T00:45:10.767Z,-3.92
2022-12-11T00:47:57.688Z,-3.83
2022-12-11T00:50:44.232Z,-3.59
2022-12-11T00:53:30.439Z,-3.37
2022-12-11T00:56:19.554Z,-3.46
2022-12-11T00:59:05.928Z,-3.37
2022-12-11T01:01:52.135Z,-3.34
2022-12-11T01:04:38.326Z,-3.30
2022-12-11T01:07:25.210Z,-3.36
2022-12-11T01:10:24.051Z,-3.43
2022-12-11T01:13:10.581Z,-3.35
2022-12-11T01:15:57.083Z,-3.31
2022-12-11T01:18:43.707Z,-3.18
2022-12-11T01:21:30.497Z,-3.10
2022-12-11T01:24:16.909Z,-3.24
2022-12-11T01:27:03.963Z,-2.95
2022-12-11T01:29:50.256Z,-3.30
2022-12-11T01:32:36.452Z,-2.78
2022-12-11T01:35:22.702Z,-2.95
2022-12-11T01:38:10.167Z,-2.56
2022-12-11T01:40:56.675Z,-2.60
2022-12-11T01:44:15.855Z,-2.44
2022-12-11T01:47:02.173Z,-2.82
2022-12-11T01:49:48.548Z,-2.67
2022-12-11T01:52:34.835Z,-3.04
2022-12-11T01:55:21.699Z,-2.65
2022-12-11T01:58:08.619Z,-2.71
2022-12-11T02:00:56.452Z,-2.91
2022-12-11T02:03:43.317Z,-2.59
2022-12-11T02:06:49.245Z,-2.26
2022-12-11T02:09:37.685Z,-2.25
2022-12-11T02:12:55.793Z,-2.19
2022-12-11T02:16:23.157Z,-2.24
2022-12-11T02:19:29.461Z,-2.58
2022-12-11T02:22:58.600Z,-2.29
2022-12-11T02:26:19.970Z,-2.61
2022-12-11T02:29:12.990Z,-2.40
2022-12-11T02:32:23.661Z,-2.15
2022-12-11T02:35:20.463Z,-2.02
2022-12-11T02:38:18.576Z,-1.94
2022-12-11T02:41:07.376Z,-2.18
2022-12-11T02:43:56.538Z,-2.10
2022-12-11T02:46:44.750Z,-1.92
2022-12-11T02:49:33.872Z,-2.00
2022-12-11T02:52:25.181Z,-2.12
2022-12-11T02:55:14.680Z,-2.07
2022-12-11T02:58:09.533Z,-2.17
2022-12-11T03:00:56.151Z,-2.31
2022-12-11T03:03:42.813Z,-2.06
2022-12-11T03:06:37.486Z,-2.04
2022-12-11T03:09:24.097Z,-1.93
2022-12-11T03:12:13.864Z,-1.85
2022-12-11T03:15:03.054Z,-1.91
2022-12-11T03:18:15.034Z,-1.80
2022-12-11T03:21:18.553Z,-1.74
2022-12-11T03:24:30.026Z,-1.93
2022-12-11T03:27:30.557Z,-1.77
2022-12-11T03:30:21.517Z,-2.11
2022-12-11T03:33:16.631Z,-2.05
2022-12-11T03:36:11.052Z,-2.00
2022-12-11T03:39:13.330Z,-2.05
2022-12-11T03:42:04.907Z,-1.89
2022-12-11T03:44:54.529Z,-2.16
2022-12-11T03:47:43.215Z,-1.83
2022-12-11T03:50:32.099Z,-2.03
2022-12-11T03:53:20.350Z,-2.15
2022-12-11T03:56:10.264Z,-2.26
2022-12-11T03:58:56.496Z,-2.00
2022-12-11T04:01:43.018Z,-1.93
2022-12-11T04:04:29.490Z,-1.78
2022-12-11T04:07:15.964Z,-1.77
2022-12-11T04:10:03.120Z,-1.77
2022-12-11T04:12:49.670Z,-2.09
2022-12-11T04:15:37.129Z,-2.19
2022-12-11T04:18:42.353Z,-2.22
2022-12-11T04:21:47.278Z,-2.09
2022-12-11T04:24:34.051Z,-2.33
2022-12-11T04:27:38.873Z,-1.93
2022-12-11T04:30:32.369Z,-2.11
2022-12-11T04:33:20.108Z,-2.14
2022-12-11T04:36:06.889Z,-2.52
2022-12-11T04:38:53.253Z,-2.47
2022-12-11T04:41:41.529Z,-2.32
2022-12-11T04:44:27.809Z,-2.39
2022-12-11T04:47:14.430Z,-2.21
2022-12-11T04:50:00.577Z,-2.59
2022-12-11T04:52:47.078Z,-2.35
2022-12-11T04:55:33.182Z,-2.32
2022-12-11T04:58:19.583Z,-2.37
2022-12-11T05:01:11.068Z,-2.71
2022-12-11T05:03:59.475Z,-2.81
2022-12-11T05:06:45.905Z,-2.68
2022-12-11T05:09:32.125Z,-2.77
2022-12-11T05:12:18.282Z,-2.78
2022-12-11T05:15:05.197Z,-2.89
2022-12-11T05:17:51.575Z,-2.97
2022-12-11T05:20:37.821Z,-3.04
2022-12-11T05:23:25.223Z,-3.07
2022-12-11T05:26:19.751Z,-3.44
2022-12-11T05:29:06.049Z,-3.28
2022-12-11T05:31:52.362Z,-3.42
2022-12-11T05:34:38.633Z,-3.27
2022-12-11T05:37:24.802Z,-3.28
2022-12-11T05:40:15.211Z,-3.00
2022-12-11T05:43:01.469Z,-3.00
2022-12-11T05:45:47.705Z,-3.38
2022-12-11T05:48:34.796Z,-2.89
2022-12-11T05:51:21.198Z,-3.08
2022-12-11T05:54:07.502Z,-3.35
2022-12-11T05:56:53.805Z,-3.24
2022-12-11T05:59:40.360Z,-3.27
2022-12-11T06:02:26.831Z,-3.09
2022-12-11T06:05:13.399Z,-3.15
2022-12-11T06:08:00.051Z,-3.17
2022-12-11T06:10:47.851Z,-3.49
2022-12-11T06:13:34.610Z,-3.39
2022-12-11T06:16:21.847Z,-3.19
2022-12-11T06:19:14.873Z,-3.34
2022-12-11T06:22:01.179Z,-3.33
2022-12-11T06:24:48.012Z,-3.03
2022-12-11T06:27:34.481Z,-3.04
2022-12-11T06:30:21.450Z,-3.16
2022-12-11T06:33:07.715Z,-2.76
2022-12-11T06:35:54.277Z,-2.51
2022-12-11T06:38:42.556Z,-2.40
2022-12-11T06:41:29.036Z,-2.23
2022-12-11T06:44:15.221Z,-2.40
2022-12-11T06:47:01.834Z,-2.29
2022-12-11T06:49:48.280Z,-2.19
2022-12-11T06:52:34.667Z,-2.55
2022-12-11T06:55:20.831Z,-2.15
2022-12-11T06:58:07.865Z,-2.40
2022-12-11T07:00:54.493Z,-2.14
2022-12-11T07:03:40.774Z,-2.01
2022-12-11T07:06:28.434Z,-2.04
2022-12-11T07:09:14.676Z,-1.97
2022-12-11T07:12:01.355Z,-2.08
2022-12-11T07:14:47.635Z,-2.01
2022-12-11T07:17:34.146Z,-2.19
2022-12-11T07:20:20.447Z,-1.97
2022-12-11T07:23:06.725Z,-2.03
2022-12-11T07:25:53.704Z,-2.11
2022-12-11T07:28:42.457Z,-2.14
2022-12-11T07:31:29.901Z,-2.16
2022-12-11T07:34:16.620Z,-2.21
2022-12-11T07:37:03.187Z,-1.86
2022-12-11T07:39:49.647Z,-2.06
2022-12-11T07:42:38.375Z,-1.79
2022-12-11T07:45:27.970Z,-1.78
2022-12-11T07:48:14.442Z,-1.76
2022-12-11T07:51:20.658Z,-1.70
2022-12-11T07:54:16.655Z,-1.78
2022-12-11T07:57:03.216Z,-1.51
2022-12-11T07:59:49.429Z,-1.65
2022-12-11T08:02:37.626Z,-1.68
2022-12-11T08:05:24.619Z,-1.73
2022-12-11T08:08:11.147Z,-1.88
2022-12-11T08:11:01.493Z,-1.87
2022-12-11T08:13:48.691Z,-1.59
2022-12-11T08:16:35.031Z,-1.79
2022-12-11T08:19:21.458Z,-1.72
2022-12-11T08:22:08.188Z,-1.75
2022-12-11T08:24:54.558Z,-1.66
2022-12-11T08:27:40.864Z,-1.62
2022-12-11T08:30:27.343Z,-1.81
2022-12-11T08:33:14.019Z,-1.74
2022-12-11T08:36:09.026Z,-1.44
2022-12-11T08:38:56.486Z,-1.40
2022-12-11T08:41:42.739Z,-1.41
2022-12-11T08:44:29.664Z,-1.42
2022-12-11T08:47:15.960Z,-1.41
2022-12-11T08:50:02.725Z,-1.40
2022-12-11T08:52:49.505Z,-1.32
2022-12-11T08:55:38.926Z,-1.17
2022-12-11T08:58:25.471Z,-0.99
2022-12-11T09:01:17.939Z,-0.77
2022-12-11T09:04:04.652Z,-0.51
2022-12-11T09:06:51.100Z,-0.43
2022-12-11T09:09:37.710Z,-0.44
2022-12-11T09:12:24.064Z,-0.30
2022-12-11T09:15:10.970Z,-0.19
2022-12-11T09:17:57.773Z,-0.05
2022-12-11T09:20:44.226Z,-0.29
2022-12-11T09:23:30.802Z,-0.06
2022-12-11T09:26:20.095Z,0.06
2022-12-11T09:29:07.754Z,0.02
2022-12-11T09:31:54.090Z,0.00
2022-12-11T09:34:40.421Z,-0.11
2022-12-11T09:37:26.958Z,-0.16
2022-12-11T09:40:13.865Z,-0.28
2022-12-11T09:43:12.544Z,-0.18
2022-12-11T09:46:03.092Z,-0.42
2022-12-11T09:48:50.451Z,-0.19
2022-12-11T09:51:42.885Z,-0.11
2022-12-11T09:54:29.603Z,-0.12
2022-12-11T09:57:34.021Z,0.09
2022-12-11T10:00:23.199Z,0.20
2022-12-11T10:03:47.219Z,0.13
2022-12-11T10:06:42.021Z,0.14
2022-12-11T10:09:37.904Z,0.00
2022-12-11T10:12:55.124Z,0.19
2022-12-11T10:15:50.850Z,0.44
2022-12-11T10:18:37.989Z,0.28
2022-12-11T10:21:26.402Z,-0.08
2022-12-11T10:27:51.389Z,-0.25
2022-12-11T10:30:39.387Z,-0.16
2022-12-11T10:33:46.449Z,-0.10
2022-12-11T10:36:36.934Z,0.02
2022-12-11T10:39:23.634Z,0.28
2022-12-11T10:42:19.255Z,0.26
2022-12-11T10:45:06.413Z,0.28
2022-12-11T10:48:03.223Z,0.33
2022-12-11T10:51:02.641Z,0.33
2022-12-11T10:53:54.002Z,0.39
2022-12-11T10:56:40.439Z,0.29
2022-12-11T10:59:44.105Z,0.46
2022-12-11T11:02:40.232Z,0.52
2022-12-11T11:05:29.737Z,0.59
2022-12-11T11:08:16.526Z,0.47
2022-12-11T11:11:03.208Z,0.49
2022-12-11T11:13:49.893Z,0.37
2022-12-11T11:16:38.856Z,0.41
2022-12-11T11:19:34.743Z,0.62
2022-12-11T11:22:21.293Z,0.66
2022-12-11T11:25:26.134Z,0.55
2022-12-11T11:28:21.336Z,0.56
2022-12-11T11:31:12.087Z,0.55
2022-12-11T11:34:06.692Z,0.53
2022-12-11T11:36:58.793Z,0.46
2022-12-11T11:39:47.980Z,0.69
2022-12-11T11:43:20.020Z,0.63
2022-12-11T11:46:14.960Z,0.51
2022-12-11T11:49:12.923Z,0.45
2022-12-11T11:52:04.082Z,0.51
2022-12-11T11:55:31.643Z,0.56
2022-12-11T11:58:28.013Z,0.50
2022-12-11T12:01:19.894Z,0.32
2022-12-11T12:04:06.413Z,0.35
2022-12-11T12:07:07.869Z,0.17
2022-12-11T12:10:23.942Z,0.03
2022-12-11T12:13:47.548Z,0.33
2022-12-11T12:20:04.340Z,0.22
2022-12-11T12:23:09.475Z,0.11
2022-12-11T12:26:11.104Z,0.12
2022-12-11T12:29:22.382Z,0.06
2022-12-11T12:32:27.195Z,-0.12
2022-12-11T12:35:34.791Z,-0.06
2022-12-11T12:38:36.335Z,0.28
2022-12-11T12:41:31.918Z,0.52
2022-12-11T12:44:22.236Z,0.75
2022-12-11T12:47:14.838Z,0.81
2022-12-11T12:50:04.490Z,0.83
2022-12-11T12:52:53.028Z,0.99
2022-12-11T12:55:40.034Z,1.05
2022-12-11T12:58:40.709Z,0.96
2022-12-11T13:01:29.827Z,1.01
2022-12-11T13:04:55.516Z,1.01
2022-12-11T13:07:54.031Z,1.02
2022-12-11T13:10:43.226Z,1.09
2022-12-11T13:13:35.536Z,0.71
2022-12-11T13:16:27.117Z,0.97
2022-12-11T13:19:39.048Z,0.84
2022-12-11T13:22:28.565Z,0.79
2022-12-11T13:25:31.458Z,0.84
2022-12-11T13:28:23.753Z,0.87
2022-12-11T13:31:16.278Z,0.68
2022-12-11T13:34:17.269Z,0.80
2022-12-11T13:37:05.275Z,0.80
2022-12-11T13:39:52.589Z,0.78
2022-12-11T13:42:52.652Z,0.95
2022-12-11T13:45:51.355Z,0.93
2022-12-11T13:48:47.731Z,0.93
2022-12-11T13:51:36.995Z,0.76
2022-12-11T13:54:24.848Z,0.46
2022-12-11T13:57:21.023Z,0.44
2022-12-11T14:00:21.377Z,0.28
2022-12-11T14:03:08.171Z,0.21
2022-12-11T14:05:54.718Z,0.20
2022-12-11T14:08:44.131Z,0.19
2022-12-11T14:11:41.945Z,0.27
2022-12-11T14:14:40.214Z,0.34
2022-12-11T14:17:32.984Z,0.19
2022-12-11T14:20:31.222Z,0.23
2022-12-11T14:23:21.260Z,0.19
2022-12-11T14:26:19.663Z,0.06
2022-12-11T14:29:06.712Z,-0.16
2022-12-11T14:31:54.017Z,-0.53
2022-12-11T14:34:46.916Z,-0.12
2022-12-11T14:37:35.533Z,-0.39
2022-12-11T14:40:28.238Z,-0.18
2022-12-11T14:43:22.207Z,-0.29
2022-12-11T14:46:16.748Z,-0.31
2022-12-11T14:49:09.164Z,-0.30
2022-12-11T14:51:58.301Z,-0.64
2022-12-11T14:54:51.311Z,-0.67
2022-12-11T14:57:41.161Z,-0.50
2022-12-11T15:00:35.892Z,-0.30
2022-12-11T15:03:24.494Z,-0.44
2022-12-11T15:06:30.045Z,-0.39
2022-12-11T15:09:28.778Z,-0.42
2022-12-11T15:12:19.739Z,-0.99
2022-12-11T15:15:07.426Z,-0.86
2022-12-11T15:17:54.021Z,-1.05
2022-12-11T15:20:40.554Z,-1.07
2022-12-11T15:23:28.076Z,-0.87
2022-12-11T15:26:14.913Z,-1.00
2022-12-11T15:29:03.735Z,-0.86
2022-12-11T15:32:02.230Z,-0.84
2022-12-11T15:34:53.469Z,-0.63
2022-12-11T15:37:40.101Z,-0.82
2022-12-11T15:40:26.855Z,-1.14
2022-12-11T15:43:13.399Z,-1.09
2022-12-11T15:46:01.210Z,-0.82
2022-12-11T15:48:48.441Z,-0.86
2022-12-11T15:51:38.398Z,-0.80
2022-12-11T15:54:29.202Z,-1.25
2022-12-11T15:57:19.428Z,-1.05
2022-12-11T16:00:06.729Z,-1.37
2022-12-11T16:02:54.301Z,-1.12
2022-12-11T16:05:41.885Z,-1.28
2022-12-11T16:08:28.213Z,-1.20
2022-12-11T16:11:14.366Z,-1.33
2022-12-11T16:14:04.145Z,-1.56
2022-12-11T16:16:50.551Z,-1.58
2022-12-11T16:19:37.388Z,-1.64
2022-12-11T16:22:23.778Z,-1.75
2022-12-11T16:25:10.566Z,-1.56
2022-12-11T16:27:59.630Z,-1.57
2022-12-11T16:30:46.454Z,-2.03
2022-12-11T16:33:32.926Z,-1.72
2022-12-11T16:36:20.346Z,-1.67
2022-12-11T16:39:06.700Z,-1.68
2022-12-11T16:41:53.364Z,-1.57
2022-12-11T16:44:44.035Z,-1.60
2022-12-11T16:47:31.008Z,-1.75
2022-12-11T16:50:18.302Z,-1.54
2022-12-11T16:53:04.816Z,-1.56
2022-12-11T16:55:51.560Z,-1.65
2022-12-11T16:58:40.429Z,-1.37
2022-12-11T17:01:27.021Z,-1.47
2022-12-11T17:04:13.553Z,-1.52
2022-12-11T17:06:59.898Z,-1.40
2022-12-11T17:09:45.965Z,-1.09
2022-12-11T17:12:32.620Z,-1.14
2022-12-11T17:15:18.878Z,-1.17
2022-12-11T17:18:05.369Z,-1.35
2022-12-11T17:20:51.578Z,-1.48
2022-12-11T17:23:38.795Z,-1.41
2022-12-11T17:26:25.288Z,-1.41
2022-12-11T17:29:12.880Z,-1.73
2022-12-11T17:31:59.350Z,-1.34
2022-12-11T17:34:46.269Z,-1.71
2022-12-11T17:37:32.744Z,-1.67
2022-12-11T17:40:20.718Z,-1.39
2022-12-11T17:43:09.253Z,-1.48
2022-12-11T17:45:55.658Z,-1.38
2022-12-11T17:48:42.540Z,-1.38
2022-12-11T17:51:28.707Z,-1.50
2022-12-11T17:54:15.023Z,-1.35
2022-12-11T17:57:01.644Z,-1.34
2022-12-11T17:59:47.839Z,-1.46
2022-12-11T18:02:34.373Z,-1.42
2022-12-11T18:05:20.690Z,-1.48
2022-12-11T18:08:06.948Z,-1.93
2022-12-11T18:10:54.113Z,-1.86
2022-12-11T18:13:41.839Z,-1.97
2022-12-11T18:16:31.328Z,-2.23
2022-12-11T18:19:17.785Z,-2.31
2022-12-11T18:22:04.504Z,-2.15
2022-12-11T18:24:51.450Z,-2.28
2022-12-11T18:27:38.478Z,-2.57
2022-12-11T18:30:25.676Z,-2.65
2022-12-11T18:33:13.096Z,-2.62
2022-12-11T18:35:59.482Z,-2.83
2022-12-11T18:38:47.888Z,-2.89
2022-12-11T18:41:34.272Z,-3.38
2022-12-11T18:44:22.647Z,-3.11
2022-12-11T18:47:09.110Z,-3.13
2022-12-11T18:49:57.855Z,-3.18
2022-12-11T18:52:45.596Z,-3.37
2022-12-11T18:55:31.940Z,-2.83
2022-12-11T18:58:19.346Z,-2.74
2022-12-11T19:01:11.474Z,-2.83
2022-12-11T19:04:03.549Z,-3.16
2022-12-11T19:06:53.497Z,-3.22
2022-12-11T19:09:43.569Z,-3.38
2022-12-11T19:12:34.676Z,-3.69
2022-12-11T19:15:23.999Z,-3.76
2022-12-11T19:18:11.460Z,-4.09
2022-12-11T19:21:08.132Z,-3.92
2022-12-11T19:23:55.432Z,-3.92
2022-12-11T19:26:42.095Z,-3.86
2022-12-11T19:29:34.268Z,-4.17
2022-12-11T19:32:20.923Z,-4.02
2022-12-11T19:35:07.257Z,-4.05
2022-12-11T19:37:53.820Z,-4.19
2022-12-11T19:40:43.810Z,-3.91
2022-12-11T19:43:30.460Z,-3.75
2022-12-11T19:46:18.215Z,-3.40
2022-12-11T19:49:05.759Z,-3.02
2022-12-11T19:51:52.235Z,-3.23
2022-12-11T19:54:38.905Z,-3.18
2022-12-11T19:57:25.526Z,-2.84
2022-12-11T20:00:12.239Z,-2.60
2022-12-11T20:02:58.707Z,-2.40
2022-12-11T20:05:45.118Z,-2.24
2022-12-11T20:08:49.201Z,-2.28
2022-12-11T20:11:35.601Z,-2.38
2022-12-11T20:14:24.968Z,-2.47
2022-12-11T20:17:14.304Z,-2.48
2022-12-11T20:20:01.410Z,-2.28
2022-12-11T20:22:47.525Z,-2.42
2022-12-11T20:25:34.387Z,-2.10
2022-12-11T20:28:20.648Z,-2.14
2022-12-11T20:31:12.487Z,-2.93
2022-12-11T20:34:03.601Z,-2.04
2022-12-11T20:36:51.899Z,-2.11
2022-12-11T20:39:38.337Z,-2.06
2022-12-11T20:42:24.740Z,-2.22
2022-12-11T20:45:11.370Z,-2.11
2022-12-11T20:47:57.732Z,-2.13
2022-12-11T20:50:44.076Z,-2.41
2022-12-11T20:53:30.776Z,-1.87
2022-12-11T20:56:19.148Z,-1.95
2022-12-11T20:59:05.813Z,-1.55
2022-12-11T21:01:52.352Z,-1.55
2022-12-11T21:04:41.009Z,-1.53
2022-12-11T21:07:28.143Z,-1.28
2022-12-11T21:10:14.745Z,-1.42
2022-12-11T21:13:01.508Z,-1.49
2022-12-11T21:15:52.383Z,-1.47
2022-12-11T21:18:40.018Z,-1.38
2022-12-11T21:21:26.424Z,-1.65
2022-12-11T21:24:21.320Z,-1.34
2022-12-11T21:27:07.710Z,-1.58
2022-12-11T21:29:53.980Z,-1.78
2022-12-11T21:32:41.262Z,-1.39
2022-12-11T21:35:27.904Z,-1.45
2022-12-11T21:38:14.829Z,-1.38
2022-12-11T21:41:22.794Z,-1.37
2022-12-11T21:47:17.585Z,-1.75
2022-12-11T21:50:04.493Z,-1.37
2022-12-11T21:52:50.608Z,-1.59
2022-12-11T21:55:41.258Z,-1.33
2022-12-11T21:58:27.661Z,-1.38
2022-12-11T22:01:32.220Z,-1.31
2022-12-11T22:04:18.916Z,-1.44
2022-12-11T22:07:05.459Z,-1.33
2022-12-11T22:09:51.847Z,-1.47
2022-12-11T22:12:38.210Z,-1.41
2022-12-11T22:15:24.795Z,-1.40
2022-12-11T22:18:12.159Z,-1.50
2022-12-11T22:20:59.189Z,-1.34
2022-12-11T22:23:45.627Z,-1.41
2022-12-11T22:26:32.150Z,-1.29
2022-12-11T22:29:18.338Z,-1.54
2022-12-11T22:32:05.066Z,-1.45
2022-12-11T22:34:51.362Z,-1.65
2022-12-11T22:37:37.678Z,-1.54
2022-12-11T22:40:23.880Z,-1.30
2022-12-11T22:43:10.079Z,-1.35
2022-12-11T22:45:56.644Z,-1.34
2022-12-11T22:48:43.257Z,-1.94
2022-12-11T22:51:29.370Z,-1.42
2022-12-11T22:54:16.355Z,-1.71
2022-12-11T22:57:02.607Z,-1.77
2022-12-11T22:59:49.154Z,-1.51
2022-12-11T23:02:36.710Z,-1.64
2022-12-11T23:05:23.379Z,-1.87
2022-12-11T23:08:09.688Z,-1.99
2022-12-11T23:10:55.892Z,-1.98
2022-12-11T23:13:42.283Z,-1.94
2022-12-11T23:16:28.825Z,-2.20
2022-12-11T23:19:16.906Z,-2.06
2022-12-11T23:22:06.165Z,-2.01
2022-12-11T23:24:52.416Z,-2.32
2022-12-11T23:27:38.821Z,-2.04
2022-12-11T23:30:25.275Z,-2.14
2022-12-11T23:33:11.596Z,-1.86
2022-12-11T23:35:58.868Z,-2.23
2022-12-11T23:38:50.959Z,-2.09
2022-12-11T23:41:39.319Z,-2.13
2022-12-11T23:44:25.556Z,-2.36
2022-12-11T23:47:11.885Z,-2.22
2022-12-11T23:49:58.353Z,-2.54
2022-12-11T23:52:45.288Z,-2.53
2022-12-11T23:55:31.535Z,-2.73
2022-12-11T23:58:17.839Z,-2.83
